Time;durP1;ratioP1;P1;durP2;ratioP2;P2;SDS_P1;SDS_P2;PMS_P1;PMS_P2;Temp;Humidity;BMP_temperature;BMP_pressure;BME280_temperature;BME280_humidity;BME280_pressure;Samples;Min_cycle;Max_cycle;Signal;HPM_P1;HPM_P2
2022/07/22 00:01:31;;;;;;;15.13;9.88;;;23.90;63.60;;;;;;5072222;28;20017;-76
2022/07/22 00:03:57;;;;;;;21.10;10.20;;;23.80;63.90;;;;;;5072028;28;20359;-76
2022/07/22 00:06:23;;;;;;;16.58;9.48;;;23.70;64.40;;;;;;5072209;28;20030;-77
2022/07/22 00:08:50;;;;;;;14.98;9.15;;;23.70;65.40;;;;;;5072199;28;20023;-77
2022/07/22 00:11:15;;;;;;;10.82;8.38;;;23.70;66.10;;;;;;5072058;28;20035;-76
2022/07/22 00:13:41;;;;;;;12.65;8.50;;;23.70;66.10;;;;;;5070895;28;20024;-77
2022/07/22 00:16:07;;;;;;;12.15;8.23;;;23.60;66.50;;;;;;5072089;28;20071;-76
2022/07/22 00:18:33;;;;;;;13.13;9.40;;;23.50;67.60;;;;;;5072307;28;20095;-77
2022/07/22 00:20:58;;;;;;;12.43;9.50;;;23.50;68.80;;;;;;5072101;28;20103;-77
2022/07/22 00:23:24;;;;;;;10.50;9.50;;;23.40;70.40;;;;;;5072339;28;20025;-76
2022/07/22 00:25:50;;;;;;;19.98;10.30;;;23.20;72.40;;;;;;5071906;28;20028;-77
2022/07/22 00:28:16;;;;;;;14.77;9.68;;;23.10;74.90;;;;;;5070398;28;20028;-77
2022/07/22 00:30:42;;;;;;;15.57;9.60;;;23.00;78.10;;;;;;5071674;28;20021;-77
2022/07/22 00:33:08;;;;;;;14.50;10.07;;;22.90;82.20;;;;;;5072013;28;20021;-77
2022/07/22 00:35:34;;;;;;;12.88;9.40;;;22.80;86.00;;;;;;5072215;28;20551;-76
2022/07/22 00:38:00;;;;;;;13.93;10.00;;;22.80;90.50;;;;;;5071905;28;20425;-76
2022/07/22 00:40:26;;;;;;;11.15;9.35;;;22.70;92.80;;;;;;5071937;28;20075;-77
2022/07/22 00:42:52;;;;;;;12.10;9.32;;;22.70;95.80;;;;;;5071875;28;20025;-76
2022/07/22 00:45:19;;;;;;;17.63;9.02;;;22.60;97.10;;;;;;5070471;28;20033;-77
2022/07/22 00:47:45;;;;;;;17.33;9.95;;;22.60;98.30;;;;;;5069318;28;20155;-76
2022/07/22 00:50:14;;;;;;;12.80;8.90;;;22.60;99.40;;;;;;5072061;28;20044;-77
2022/07/22 00:52:42;;;;;;;14.73;8.73;;;22.50;99.90;;;;;;5070454;28;20455;-77
2022/07/22 00:55:08;;;;;;;11.60;8.93;;;22.50;99.90;;;;;;5071810;28;20032;-76
2022/07/22 00:57:34;;;;;;;18.63;9.90;;;22.50;99.90;;;;;;5070507;28;20486;-76
2022/07/22 01:00:00;;;;;;;16.20;10.00;;;22.50;99.90;;;;;;5071887;28;20020;-76
2022/07/22 01:02:26;;;;;;;23.13;9.55;;;22.50;99.90;;;;;;5071712;28;20107;-76
2022/07/22 01:04:52;;;;;;;13.73;9.15;;;22.50;99.90;;;;;;5071329;28;20140;-76
2022/07/22 01:07:18;;;;;;;12.73;9.30;;;22.50;99.90;;;;;;5071838;28;20474;-77
2022/07/22 01:09:45;;;;;;;19.42;8.57;;;22.50;99.90;;;;;;5070383;28;20021;-76
2022/07/22 01:12:11;;;;;;;17.08;9.43;;;22.50;99.90;;;;;;5071647;28;20528;-77
2022/07/22 01:14:37;;;;;;;13.43;8.52;;;22.50;99.90;;;;;;5072018;28;20031;-76
2022/07/22 01:17:03;;;;;;;14.80;8.50;;;22.50;99.90;;;;;;5071334;28;20360;-76
2022/07/22 01:19:29;;;;;;;11.75;8.38;;;22.50;99.90;;;;;;5072831;28;20044;-76
2022/07/22 01:21:55;;;;;;;12.43;8.98;;;22.40;99.90;;;;;;5075313;28;20118;-77
2022/07/22 01:24:21;;;;;;;17.30;8.70;;;22.40;99.90;;;;;;5075095;28;20031;-77
2022/07/22 01:26:47;;;;;;;19.50;8.65;;;22.50;99.90;;;;;;5074964;28;20420;-77
2022/07/22 01:29:13;;;;;;;14.50;8.35;;;22.40;99.90;;;;;;5073631;28;20411;-76
2022/07/22 01:31:39;;;;;;;11.75;8.75;;;22.40;99.90;;;;;;5075363;28;20468;-77
2022/07/22 01:34:05;;;;;;;14.27;8.88;;;22.50;99.90;;;;;;5073676;28;20403;-77
2022/07/22 01:36:31;;;;;;;12.52;8.23;;;22.50;99.90;;;;;;5074690;28;20099;-77
2022/07/22 01:38:57;;;;;;;17.05;8.27;;;22.60;99.90;;;;;;5073726;28;20020;-76
2022/07/22 01:41:23;;;;;;;14.25;8.80;;;22.60;99.90;;;;;;5074422;28;20016;-77
2022/07/22 01:43:49;;;;;;;13.15;9.63;;;22.60;99.90;;;;;;5074414;28;20025;-76
2022/07/22 01:46:14;;;;;;;23.83;9.18;;;22.60;99.90;;;;;;5073708;28;20032;-76
2022/07/22 01:48:41;;;;;;;17.35;8.98;;;22.60;99.90;;;;;;5074604;28;20464;-77
2022/07/22 01:51:06;;;;;;;18.88;8.60;;;22.50;99.90;;;;;;5074639;28;20021;-77
2022/07/22 01:53:32;;;;;;;12.32;8.82;;;22.50;99.90;;;;;;5074643;28;20035;-76
2022/07/22 01:55:58;;;;;;;13.85;9.60;;;22.50;99.90;;;;;;5074984;28;20024;-77
2022/07/22 01:58:24;;;;;;;18.83;8.77;;;22.40;99.90;;;;;;5074551;28;20459;-77
2022/07/22 02:00:51;;;;;;;12.80;9.10;;;22.40;99.90;;;;;;5073159;28;20021;-76
2022/07/22 02:03:17;;;;;;;18.00;9.63;;;22.40;99.90;;;;;;5074302;28;20368;-76
2022/07/22 02:05:44;;;;;;;13.80;9.80;;;22.30;99.90;;;;;;5074347;28;20025;-77
2022/07/22 02:08:10;;;;;;;20.33;11.60;;;22.30;99.90;;;;;;5074320;28;20055;-76
2022/07/22 02:10:37;;;;;;;17.88;12.15;;;22.30;99.90;;;;;;5073173;28;20024;-77
2022/07/22 02:13:04;;;;;;;15.23;9.75;;;22.20;99.90;;;;;;5073025;28;20021;-76
2022/07/22 02:15:29;;;;;;;11.07;9.77;;;22.10;99.90;;;;;;5074124;28;20017;-77
2022/07/22 02:17:55;;;;;;;21.90;9.55;;;22.20;99.90;;;;;;5074298;28;20495;-76
2022/07/22 02:20:22;;;;;;;14.15;9.10;;;22.10;99.90;;;;;;5073905;28;20432;-76
2022/07/22 02:22:47;;;;;;;14.95;9.02;;;22.10;99.90;;;;;;5073941;28;20052;-77
2022/07/22 02:25:13;;;;;;;15.02;9.00;;;22.00;99.90;;;;;;5074184;28;20063;-76
2022/07/22 02:27:40;;;;;;;14.57;9.25;;;21.90;99.90;;;;;;5073779;28;20025;-77
2022/07/22 02:30:07;;;;;;;17.38;9.77;;;21.80;99.90;;;;;;5069678;28;20052;-77
2022/07/22 02:32:33;;;;;;;18.15;8.90;;;21.80;99.90;;;;;;5073958;28;20016;-76
2022/07/22 02:34:58;;;;;;;13.05;8.88;;;21.80;99.90;;;;;;5074011;28;20371;-76
2022/07/22 02:37:24;;;;;;;16.27;9.80;;;21.80;99.90;;;;;;5073688;28;20421;-76
2022/07/22 02:39:50;;;;;;;15.30;9.25;;;21.80;99.90;;;;;;5074068;28;20097;-77
2022/07/22 02:42:16;;;;;;;16.35;9.38;;;21.80;99.90;;;;;;5073738;28;20032;-76
2022/07/22 02:44:41;;;;;;;17.60;9.25;;;21.80;99.90;;;;;;5073455;28;20025;-77
2022/07/22 02:47:07;;;;;;;20.60;9.50;;;21.80;99.90;;;;;;5072312;28;20059;-77
2022/07/22 02:49:33;;;;;;;11.05;8.50;;;21.80;99.90;;;;;;5073762;28;20474;-75
2022/07/22 02:51:59;;;;;;;18.17;9.18;;;21.80;99.90;;;;;;5073533;28;20023;-77
2022/07/22 02:54:25;;;;;;;14.52;9.30;;;21.80;99.90;;;;;;5070850;28;20043;-77
2022/07/22 02:56:51;;;;;;;17.98;9.10;;;21.90;99.90;;;;;;5072008;28;20028;-76
2022/07/22 02:59:16;;;;;;;13.50;8.73;;;21.90;99.90;;;;;;5073154;28;20020;-75
2022/07/22 03:01:42;;;;;;;13.35;8.32;;;21.90;99.90;;;;;;5073276;28;20043;-76
2022/07/22 03:04:08;;;;;;;13.43;8.80;;;21.90;99.90;;;;;;5072910;28;20540;-77
2022/07/22 03:06:34;;;;;;;19.70;9.15;;;22.00;99.90;;;;;;5073368;28;20052;-76
2022/07/22 03:08:59;;;;;;;15.07;9.15;;;21.90;99.90;;;;;;5072939;28;20584;-75
2022/07/22 03:11:25;;;;;;;14.65;9.10;;;21.90;99.90;;;;;;5071712;28;20068;-76
2022/07/22 03:13:51;;;;;;;11.43;9.68;;;21.90;99.90;;;;;;5073523;28;20028;-77
2022/07/22 03:16:17;;;;;;;12.75;8.95;;;21.90;99.90;;;;;;5073000;28;20510;-76
2022/07/22 03:18:42;;;;;;;17.15;10.05;;;21.90;99.90;;;;;;5072638;28;20028;-77
2022/07/22 03:21:08;;;;;;;17.17;9.32;;;21.90;99.90;;;;;;5072872;28;20031;-76
2022/07/22 03:23:34;;;;;;;15.18;10.43;;;21.90;99.90;;;;;;5072755;28;20020;-77
2022/07/22 03:26:00;;;;;;;16.38;9.10;;;22.00;99.90;;;;;;5072678;28;20111;-76
2022/07/22 03:28:27;;;;;;;13.07;8.65;;;22.00;99.90;;;;;;5069943;28;20071;-76
2022/07/22 03:30:53;;;;;;;14.23;8.68;;;22.00;99.90;;;;;;5072891;28;20108;-77
2022/07/22 03:33:19;;;;;;;18.40;9.45;;;22.10;99.90;;;;;;5072342;28;20035;-76
2022/07/22 03:35:44;;;;;;;10.90;8.40;;;22.10;99.90;;;;;;5072707;28;20028;-76
2022/07/22 03:38:10;;;;;;;13.60;8.65;;;22.10;99.90;;;;;;5072799;28;20063;-77
2022/07/22 03:40:36;;;;;;;15.10;8.50;;;22.10;99.90;;;;;;5072604;28;20035;-76
2022/07/22 03:43:02;;;;;;;22.23;9.10;;;22.20;99.90;;;;;;5072165;28;20028;-75
2022/07/22 03:45:27;;;;;;;18.05;9.10;;;22.20;99.90;;;;;;5072331;28;20038;-77
2022/07/22 03:47:54;;;;;;;13.23;9.77;;;22.30;99.70;;;;;;5072480;28;20378;-76
2022/07/22 03:50:20;;;;;;;16.10;9.45;;;22.30;99.10;;;;;;5071235;28;20612;-76
2022/07/22 03:52:46;;;;;;;16.02;9.85;;;22.30;99.80;;;;;;5069705;28;20073;-76
2022/07/22 03:55:12;;;;;;;19.17;10.02;;;22.30;99.80;;;;;;5072329;28;20038;-77
2022/07/22 03:57:38;;;;;;;16.85;10.20;;;22.30;99.90;;;;;;5073456;28;20024;-77
2022/07/22 04:00:05;;;;;;;17.83;10.05;;;22.30;99.90;;;;;;5073981;28;20108;-76
2022/07/22 04:02:31;;;;;;;19.73;9.77;;;22.30;99.90;;;;;;5073587;28;20105;-76
2022/07/22 04:04:57;;;;;;;21.08;9.75;;;22.40;99.90;;;;;;5073743;28;20032;-76
2022/07/22 04:07:22;;;;;;;13.27;8.90;;;22.40;99.50;;;;;;5072352;28;20039;-75
2022/07/22 04:09:48;;;;;;;16.20;9.32;;;22.50;99.60;;;;;;5073550;28;20081;-74
2022/07/22 04:12:14;;;;;;;17.73;9.60;;;22.50;99.20;;;;;;5073249;28;20035;-75
2022/07/22 04:14:40;;;;;;;14.18;8.38;;;22.60;99.90;;;;;;5073536;28;20107;-74
2022/07/22 04:17:05;;;;;;;14.88;9.07;;;22.60;99.30;;;;;;5072653;28;20089;-75
2022/07/22 04:19:31;;;;;;;17.73;8.65;;;22.70;99.60;;;;;;5073706;28;20028;-72
2022/07/22 04:21:57;;;;;;;17.77;9.10;;;22.80;97.70;;;;;;5072951;28;20024;-73
2022/07/22 04:24:23;;;;;;;14.00;8.73;;;22.80;98.80;;;;;;5073162;28;20037;-75
2022/07/22 04:26:49;;;;;;;13.40;8.85;;;23.00;99.60;;;;;;5073712;28;20079;-74
2022/07/22 04:29:14;;;;;;;17.50;9.05;;;23.00;97.10;;;;;;5073359;28;20040;-74
2022/07/22 04:31:40;;;;;;;16.50;9.45;;;23.10;98.30;;;;;;5072234;28;20032;-75
2022/07/22 04:34:06;;;;;;;17.42;8.70;;;23.20;96.90;;;;;;5072270;28;20052;-74
2022/07/22 04:36:32;;;;;;;20.63;8.93;;;23.20;94.10;;;;;;5073297;28;20345;-74
2022/07/22 04:38:58;;;;;;;14.07;8.65;;;23.30;93.90;;;;;;5073173;28;20090;-75
2022/07/22 04:41:24;;;;;;;13.75;9.07;;;23.40;93.90;;;;;;5072396;28;20412;-76
2022/07/22 04:43:49;;;;;;;15.27;8.65;;;23.60;92.00;;;;;;5073214;28;20443;-74
2022/07/22 04:46:15;;;;;;;17.52;7.88;;;23.60;92.20;;;;;;5073006;28;20130;-74
2022/07/22 04:48:41;;;;;;;19.70;8.60;;;23.70;92.30;;;;;;5073190;28;20033;-75
2022/07/22 04:51:07;;;;;;;17.23;8.88;;;23.90;90.20;;;;;;5073417;28;20036;-74
2022/07/22 04:53:33;;;;;;;15.52;9.15;;;;;;;;;;5074004;28;20025;-75
2022/07/22 04:55:59;;;;;;;19.73;9.77;;;;;;;;;;5077020;28;20024;-74
2022/07/22 04:58:25;;;;;;;26.63;9.98;;;;;;;;;;5076781;28;20036;-75
2022/07/22 05:00:51;;;;;;;18.63;9.13;;;;;;;;;;5075325;28;20027;-75
2022/07/22 05:03:18;;;;;;;19.70;8.55;;;;;;;;;;5076759;28;20455;-76
2022/07/22 05:05:45;;;;;;;16.77;10.35;;;;;;;;;;5076996;28;20024;-75
2022/07/22 05:08:11;;;;;;;17.67;9.48;;;;;;;;;;5076298;28;20025;-75
2022/07/22 05:10:38;;;;;;;13.55;8.93;;;;;;;;;;5076457;28;20097;-75
2022/07/22 05:13:04;;;;;;;17.27;9.25;;;;;;;;;;5075795;28;20017;-75
2022/07/22 05:15:30;;;;;;;23.75;9.80;;;;;;;;;;5075724;28;20038;-75
2022/07/22 05:17:56;;;;;;;21.85;10.05;;;;;;;;;;5075731;28;20013;-75
2022/07/22 05:20:22;;;;;;;16.67;9.60;;;;;;;;;;5076368;28;20024;-74
2022/07/22 05:22:48;;;;;;;13.38;10.20;;;;;;;;;;5076470;28;20025;-74
2022/07/22 05:25:14;;;;;;;14.65;8.85;;;;;;;;;;5076527;28;20020;-75
2022/07/22 05:27:50;;;;;;;16.85;8.50;;;;;;;;;;5075271;28;20486;-75
2022/07/22 05:30:16;;;;;;;22.73;8.88;;;;;;;;;;5076730;28;20055;-75
2022/07/22 05:32:42;;;;;;;19.55;9.18;;;;;;;;;;5076347;28;20028;-75
2022/07/22 05:35:08;;;;;;;13.07;9.02;;;;;;;;;;5074404;28;20021;-75
2022/07/22 05:37:37;;;;;;;11.55;8.68;;;;;;;;;;5076560;28;20030;-81
2022/07/22 05:40:04;;;;;;;18.92;8.95;;;;;;;;;;5076404;28;20107;-76
2022/07/22 05:42:30;;;;;;;9.13;8.23;;;;;;;;;;5076451;28;20029;-76
2022/07/22 05:44:56;;;;;;;13.80;8.95;;;;;;;;;;5075952;28;20109;-76
2022/07/22 05:47:23;;;;;;;12.38;8.70;;;;;;;;;;5075903;28;20020;-76
2022/07/22 05:49:49;;;;;;;11.70;8.38;;;;;;;;;;5075017;28;20024;-79
2022/07/22 05:52:15;;;;;;;19.48;9.52;;;;;;;;;;5076257;28;20034;-79
2022/07/22 05:54:41;;;;;;;9.90;8.60;;;;;;;;;;5076075;28;20089;-79
2022/07/22 05:57:09;;;;;;;14.48;8.55;;;;;;;;;;5076015;28;20032;-78
2022/07/22 05:59:36;;;;;;;11.32;8.90;;;;;;;;;;5074500;28;20115;-79
2022/07/22 06:02:02;;;;;;;17.35;8.98;;;;;;;;;;5074675;28;20024;-78
2022/07/22 06:04:28;;;;;;;12.70;8.80;;;;;;;;;;5075583;28;20025;-79
2022/07/22 06:06:54;;;;;;;10.85;9.68;;;;;;;;;;5075297;28;20048;-81
2022/07/22 06:09:20;;;;;;;10.90;9.23;;;;;;;;;;5075028;28;20019;-79
2022/07/22 06:11:47;;;;;;;14.60;9.38;;;;;;;;;;5074631;28;20232;-80
2022/07/22 06:14:13;;;;;;;32.90;10.95;;;;;;;;;;5074338;28;20482;-80
2022/07/22 06:16:39;;;;;;;13.73;8.20;;;;;;;;;;5074349;28;20025;-79
2022/07/22 06:19:05;;;;;;;25.90;9.32;;;;;;;;;;5075169;28;20340;-79
2022/07/22 06:21:31;;;;;;;15.32;8.40;;;;;;;;;;5075216;28;20020;-79
2022/07/22 06:23:58;;;;;;;14.52;8.57;;;;;;;;;;5074114;28;20017;-80
2022/07/22 06:26:24;;;;;;;9.35;8.32;;;;;;;;;;5075538;28;20051;-81
2022/07/22 06:28:50;;;;;;;16.27;8.70;;;;;;;;;;5074807;28;20044;-79
2022/07/22 06:31:16;;;;;;;20.52;9.55;;;;;;;;;;5075448;28;20024;-80
2022/07/22 06:33:42;;;;;;;10.05;8.10;;;;;;;;;;5073946;28;20025;-80
2022/07/22 06:36:09;;;;;;;11.68;8.25;;;;;;;;;;5075404;28;20029;-79
2022/07/22 06:38:35;;;;;;;22.15;8.63;;;;;;;;;;5075278;28;20096;-79
2022/07/22 06:41:01;;;;;;;18.80;9.05;;;;;;;;;;5075090;28;20033;-78
2022/07/22 06:43:31;;;;;;;12.10;9.75;;;;;;;;;;5074903;28;20021;-81
2022/07/22 06:45:57;;;;;;;21.48;8.73;;;;;;;;;;5074980;28;20474;-79
2022/07/22 06:48:23;;;;;;;21.17;9.77;;;;;;;;;;5073642;28;20039;-78
2022/07/22 06:50:49;;;;;;;13.02;8.43;;;;;;;;;;5073768;28;20025;-78
2022/07/22 06:53:15;;;;;;;27.92;9.00;;;;;;;;;;5074935;28;20056;-79
2022/07/22 06:55:41;;;;;;;11.13;8.75;;;;;;;;;;5074475;28;20020;-77
2022/07/22 06:58:08;;;;;;;15.18;7.90;;;;;;;;;;5074819;28;20024;-78
2022/07/22 07:00:34;;;;;;;16.63;8.40;;;;;;;;;;5074887;28;20064;-78
2022/07/22 07:03:00;;;;;;;14.65;8.32;;;;;;;;;;5074775;28;20020;-76
2022/07/22 07:05:30;;;;;;;12.77;9.88;;;;;;;;;;5074568;28;20027;-73
2022/07/22 07:07:56;;;;;;;18.20;8.15;;;;;;;;;;5074739;28;20028;-74
2022/07/22 07:10:23;;;;;;;17.60;7.97;;;;;;;;;;5074469;28;20029;-75
2022/07/22 07:12:49;;;;;;;16.02;7.85;;;;;;;;;;5073270;28;20025;-75
2022/07/22 07:15:15;;;;;;;11.05;7.93;;;;;;;;;;5074618;28;20107;-75
2022/07/22 07:17:41;;;;;;;16.92;8.80;;;;;;;;;;5073813;28;20052;-74
2022/07/22 07:20:08;;;;;;;14.05;8.70;;;;;;;;;;5074453;28;20020;-75
2022/07/22 07:22:34;;;;;;;21.17;9.43;;;;;;;;;;5072928;28;20074;-74
2022/07/22 07:25:07;;;;;;;22.25;8.80;;;;;;;;;;5074097;28;20078;-74
2022/07/22 07:27:33;;;;;;;19.40;7.80;;;;;;;;;;5074367;28;20029;-74
2022/07/22 07:29:59;;;;;;;12.95;8.77;;;;;;;;;;5072734;28;20052;-75
2022/07/22 07:32:26;;;;;;;15.02;7.70;;;;;;;;;;5074619;28;20021;-74
2022/07/22 07:34:52;;;;;;;21.85;8.05;;;;;;;;;;5073977;28;20031;-75
2022/07/22 07:37:18;;;;;;;13.70;7.93;;;;;;;;;;5074044;28;20432;-75
2022/07/22 07:39:44;;;;;;;15.43;10.95;;;;;;;;;;5073157;28;20043;-75
2022/07/22 07:42:10;;;;;;;24.48;8.43;;;;;;;;;;5074061;28;20032;-74
2022/07/22 07:44:36;;;;;;;15.85;8.93;;;;;;;;;;5073552;28;20024;-75
2022/07/22 07:47:03;;;;;;;18.27;9.70;;;;;;;;;;5074229;28;20066;-75
2022/07/22 07:49:29;;;;;;;21.65;9.48;;;;;;;;;;5072748;28;20028;-75
2022/07/22 07:51:56;;;;;;;15.35;11.85;;;;;;;;;;5073829;28;20026;-74
2022/07/22 07:54:22;;;;;;;13.02;10.15;;;;;;;;;;5073891;28;20028;-76
2022/07/22 07:56:48;;;;;;;16.85;10.40;;;;;;;;;;5073681;28;20020;-75
2022/07/22 07:59:16;;;;;;;18.58;9.65;;;;;;;;;;5073508;28;20024;-76
2022/07/22 08:01:42;;;;;;;15.38;10.15;;;;;;;;;;5072442;28;20029;-75
2022/07/22 08:04:09;;;;;;;24.10;10.38;;;;;;;;;;5072654;28;20095;-75
2022/07/22 08:06:35;;;;;;;16.83;10.40;;;;;;;;;;5073925;28;20029;-76
2022/07/22 08:09:01;;;;;;;20.60;9.40;;;;;;;;;;5073698;28;20471;-76
2022/07/22 08:11:27;;;;;;;23.15;11.25;;;;;;;;;;5073516;28;20016;-76
2022/07/22 08:13:53;;;;;;;21.80;10.13;;;;;;;;;;5073553;28;20023;-74
2022/07/22 08:16:19;;;;;;;28.92;11.05;;;;;;;;;;5073649;28;20017;-75
2022/07/22 08:18:45;;;;;;;19.17;9.32;;;;;;;;;;5072226;28;20387;-75
2022/07/22 08:21:12;;;;;;;19.95;9.88;;;;;;;;;;5073475;28;20032;-76
2022/07/22 08:23:38;;;;;;;15.55;9.20;;;;;;;;;;5073601;28;20035;-76
2022/07/22 08:26:04;;;;;;;16.60;9.18;;;;;;;;;;5073056;28;20040;-77
2022/07/22 08:28:31;;;;;;;18.50;9.00;;;;;;;;;;5074640;28;20360;-75
2022/07/22 08:30:57;;;;;;;16.40;8.95;;;;;;;;;;5077720;28;20055;-75
2022/07/22 08:33:23;;;;;;;13.18;8.93;;;;;;;;;;5077200;28;20028;-75
2022/07/22 08:35:49;;;;;;;12.52;7.75;;;;;;;;;;5077639;28;20024;-74
2022/07/22 08:38:15;;;;;;;11.85;8.18;;;;;;;;;;5076553;28;20356;-74
2022/07/22 08:40:41;;;;;;;10.05;7.97;;;;;;;;;;5077386;28;20071;-74
2022/07/22 08:43:07;;;;;;;12.10;8.32;;;;;;;;;;5077156;28;20033;-76
2022/07/22 08:45:34;;;;;;;19.48;9.88;;;;;;;;;;5077145;28;20475;-76
2022/07/22 08:48:02;;;;;;;15.30;8.07;;;;;;;;;;5076038;28;20024;-77
2022/07/22 08:50:29;;;;;;;21.02;9.55;;;;;;;;;;5076838;28;20448;-76
2022/07/22 08:52:55;;;;;;;17.52;8.75;;;;;;;;;;5077362;28;20021;-78
2022/07/22 08:55:21;;;;;;;13.40;9.07;;;;;;;;;;5077038;28;20024;-77
2022/07/22 08:57:48;;;;;;;9.75;8.57;;;;;;;;;;5077151;28;20021;-77
2022/07/22 09:00:16;;;;;;;19.50;9.77;;;;;;;;;;5075935;28;20021;-76
2022/07/22 09:02:43;;;;;;;25.23;9.40;;;;;;;;;;5076665;28;20077;-77
2022/07/22 09:05:10;;;;;;;21.63;12.80;;;;;;;;;;5075542;28;20025;-76
2022/07/22 09:07:37;;;;;;;13.90;10.95;;;;;;;;;;5075564;28;20166;-77
2022/07/22 09:10:05;;;;;;;13.32;10.30;;;;;;;;;;5077007;28;20019;-79
2022/07/22 09:12:32;;;;;;;15.90;10.85;;;;;;;;;;5076554;28;20017;-76
2022/07/22 09:14:59;;;;;;;16.98;11.20;;;;;;;;;;5076673;28;20024;-75
2022/07/22 09:17:30;;;;;;;15.60;10.27;;;;;;;;;;5076911;28;20028;-76
2022/07/22 09:19:57;;;;;;;21.20;10.20;;;;;;;;;;5076784;28;20031;-77
2022/07/22 09:22:34;;;;;;;13.63;11.68;;;;;;;;;;5075319;28;20024;-77
2022/07/22 09:25:19;;;;;;;13.45;12.10;;;;;;;;;;5076578;28;20031;-76
2022/07/22 09:27:45;;;;;;;17.52;10.05;;;;;;;;;;5076479;28;20040;-76
2022/07/22 09:30:15;;;;;;;12.80;10.30;;;;;;;;;;5076575;28;20099;-76
2022/07/22 09:32:42;;;;;;;13.00;10.20;;;;;;;;;;5076198;28;20082;-77
2022/07/22 09:35:10;;;;;;;15.40;11.80;;;;;;;;;;5075035;28;20106;-76
2022/07/22 09:37:36;;;;;;;19.38;10.85;;;;;;;;;;5076299;28;20017;-77
2022/07/22 09:40:22;;;;;;;17.92;10.18;;;;;;;;;;5074486;28;20030;-77
2022/07/22 09:42:53;;;;;;;10.02;7.22;;;;;;;;;;5076143;28;20836;-76
2022/07/22 09:45:20;;;;;;;13.00;7.13;;;;;;;;;;5076167;28;20035;-77
2022/07/22 09:47:46;;;;;;;14.55;10.63;;;;;;;;;;5076254;28;20062;-78
2022/07/22 09:50:23;;;;;;;15.57;9.85;;;;;;;;;;5076083;28;20025;-77
2022/07/22 09:52:50;;;;;;;12.05;10.10;;;;;;;;;;5073824;28;20340;-75
2022/07/22 09:55:17;;;;;;;14.68;10.30;;;;;;;;;;5075221;28;20384;-78
2022/07/22 09:57:44;;;;;;;12.25;11.07;;;;;;;;;;5073849;28;20056;-79
2022/07/22 10:00:11;;;;;;;13.43;12.30;;;;;;;;;;5075385;28;20020;-77
2022/07/22 10:02:42;;;;;;;16.48;10.07;;;;;;;;;;5075343;28;20020;-78
2022/07/22 10:05:09;;;;;;;11.50;9.82;;;;;;;;;;5074991;28;20394;-78
2022/07/22 10:07:37;;;;;;;13.30;8.55;;;;;;;;;;5075529;28;20029;-77
2022/07/22 10:10:03;;;;;;;21.00;10.52;;;;;;;;;;5075140;28;20050;-77
2022/07/22 10:12:31;;;;;;;11.73;9.40;;;;;;;;;;5075090;28;20533;-77
2022/07/22 10:14:58;;;;;;;12.82;8.45;;;;;;;;;;5074633;28;20056;-77
2022/07/22 10:17:24;;;;;;;8.95;8.05;;;;;;;;;;5075157;28;20471;-78
2022/07/22 10:19:50;;;;;;;11.80;10.13;;;;;;;;;;5074440;28;20107;-77
2022/07/22 10:22:35;;;;;;;13.13;9.90;;;;;;;;;;5074926;28;20029;-78
2022/07/22 10:25:01;;;;;;;11.40;10.30;;;;;;;;;;5074386;28;20119;-77
2022/07/22 10:27:48;;;;;;;54.92;25.75;;;;;;;;;;5074979;28;20033;-78
2022/07/22 10:30:15;;;;;;;39.08;20.05;;;;;;;;;;5064330;28;20463;-77
2022/07/22 10:32:42;;;;;;;33.70;22.08;;;;;;;;;;5073920;28;20104;-77
2022/07/22 10:35:11;;;;;;;25.58;17.15;;;;;;;;;;5074322;28;20103;-77
2022/07/22 10:37:40;;;;;;;14.45;7.53;;;;;;;;;;5074740;28;20375;-77
2022/07/22 10:40:19;;;;;;;44.80;21.88;;;;;;;;;;5074347;28;20107;-77
2022/07/22 10:45:28;;;;;;;83.85;49.85;;;;;;;;;;5074413;28;20047;-76
2022/07/22 10:47:55;;;;;;;70.75;30.52;;;;;;;;;;5073032;28;20478;-76
2022/07/22 10:50:40;;;;;;;64.03;24.73;;;;;;;;;;5073650;28;20387;-77
2022/07/22 10:53:41;;;;;;;53.08;26.30;;;;;;;;;;5072873;28;20052;-76
2022/07/22 10:56:13;;;;;;;47.15;25.48;;;;;;;;;;5073861;28;20506;-77
2022/07/22 10:58:40;;;;;;;47.28;25.38;;;;;;;;;;5074450;28;20486;-77
2022/07/22 11:01:07;;;;;;;60.35;23.55;;;;;;;;;;5073821;28;20108;-76
2022/07/22 11:03:34;;;;;;;53.58;26.35;;;;;;;;;;5074064;28;20020;-77
2022/07/22 11:06:17;;;;;;;50.80;23.38;;;;;;;;;;5073789;28;20032;-77
2022/07/22 11:08:44;;;;;;;49.63;25.38;;;;;;;;;;5073949;28;20107;-77
2022/07/22 11:11:10;;;;;;;54.55;27.75;;;;;;;;;;5072351;28;20021;-77
2022/07/22 11:13:38;;;;;;;46.58;24.33;;;;;;;;;;5073691;28;20025;-75
2022/07/22 11:16:19;;;;;;;46.13;23.38;;;;;;;;;;5073758;28;20020;-78
2022/07/22 11:18:47;;;;;;;45.58;25.38;;;;;;;;;;5073348;28;20107;-76
2022/07/22 11:21:14;;;;;;;45.47;29.23;;;;;;;;;;5073429;28;20422;-77
2022/07/22 11:23:41;;;;;;;47.40;26.85;;;;;;;;;;5074101;28;20031;-76
2022/07/22 11:26:09;;;;;;;52.58;32.75;;;;;;;;;;5072339;28;20036;-77
2022/07/22 11:28:41;;;;;;;46.58;25.70;;;;;;;;;;5072080;28;20025;-77
2022/07/22 11:31:09;;;;;;;46.80;25.98;;;;;;;;;;5073533;28;20094;-77
2022/07/22 11:33:35;;;;;;;45.42;27.33;;;;;;;;;;5073306;28;20379;-76
2022/07/22 11:36:05;;;;;;;44.42;25.90;;;;;;;;;;5073177;28;20054;-77
2022/07/22 11:39:00;;;;;;;11.25;7.78;;;;;;;;;;5073449;28;20024;-77
2022/07/22 11:41:29;;;;;;;12.82;10.07;;;;;;;;;;5011463;28;20120;-77
2022/07/22 11:43:56;;;;;;;12.63;10.40;;;;;;;;;;5011415;28;20033;-76
2022/07/22 11:46:23;;;;;;;43.90;25.92;;;;;;;;;;5011382;28;20088;-77
2022/07/22 11:48:49;;;;;;;43.47;24.65;;;;;;;;;;5011228;28;20030;-77
2022/07/22 11:51:15;;;;;;;47.22;26.20;;;;;;;;;;5011972;28;20088;-77
2022/07/22 11:53:42;;;;;;;48.80;29.40;;;;;;;;;;5011211;28;20113;-78
2022/07/22 11:56:10;;;;;;;34.03;22.25;;;;;;;;;;5011249;28;20040;-77
2022/07/22 11:58:41;;;;;;;32.08;24.55;;;;;;;;;;5011392;28;20125;-77
2022/07/22 12:01:08;;;;;;;41.58;26.30;;;;;;;;;;5011237;28;20029;-77
2022/07/22 12:03:36;;;;;;;45.75;32.20;;;;;;;;;;4994519;28;20109;-78
2022/07/22 12:06:04;;;;;;;56.58;30.00;;;;;;;;;;5010794;28;20045;-77
2022/07/22 12:08:30;;;;;;;29.95;26.25;;;;;;;;;;5011124;28;20030;-77
2022/07/22 12:10:57;;;;;;;30.20;21.75;;;;;;;;;;4994157;28;20117;-77
2022/07/22 12:13:29;;;;;;;42.80;25.75;;;;;;;;;;5011081;28;20038;-77
2022/07/22 12:15:55;;;;;;;31.85;21.40;;;;;;;;;;5010918;28;20080;-77
2022/07/22 12:18:22;;;;;;;27.50;18.30;;;;;;;;;;5056015;28;20067;-77
2022/07/22 12:20:50;;;;;;;49.15;20.10;;;;;;;;;;5072167;28;20028;-77
2022/07/22 12:23:16;;;;;;;34.13;26.20;;;;;;;;;;5073453;28;20032;-77
2022/07/22 12:25:52;;;;;;;24.95;14.85;;;;;;;;;;5071304;28;20024;-77
2022/07/22 12:28:18;;;;;;;26.17;18.50;;;;;;;;;;5072665;28;20024;-77
2022/07/22 12:30:45;;;;;;;20.65;15.43;;;;;;;;;;5072690;28;20070;-78
2022/07/22 12:33:15;;;;;;;17.75;15.02;;;;;;;;;;5073024;28;20016;-77
2022/07/22 12:35:41;;;;;;;19.80;17.23;;;;;;;;;;5072537;28;20391;-77
2022/07/22 12:38:08;;;;;;;23.08;15.52;;;;;;;;;;5072557;28;20649;-77
2022/07/22 12:40:35;;;;;;;15.43;13.73;;;;;;;;;;5072675;28;20029;-78
2022/07/22 12:43:05;;;;;;;19.17;13.00;;;;;;;;;;5072274;28;20020;-78
2022/07/22 12:45:33;;;;;;;23.58;14.38;;;;;;;;;;5071273;28;20067;-77
2022/07/22 12:48:06;;;;;;;16.58;12.73;;;;;;;;;;5072476;28;20052;-79
2022/07/22 12:50:32;;;;;;;17.45;12.98;;;;;;;;;;5072595;28;20013;-77
2022/07/22 12:53:05;;;;;;;20.13;13.07;;;;;;;;;;5072679;28;20039;-77
2022/07/22 12:55:31;;;;;;;15.60;10.68;;;;;;;;;;5072495;28;20155;-78
2022/07/22 12:57:58;;;;;;;9.82;7.05;;;;;;;;;;5071882;28;20396;-78
2022/07/22 13:00:25;;;;;;;7.60;6.78;;;;;;;;;;5071082;28;20371;-78
2022/07/22 13:02:52;;;;;;;30.23;11.82;;;;;;;;;;5071600;28;20016;-77
2022/07/22 13:05:18;;;;;;;13.10;11.65;;;;;;;;;;5072320;28;20390;-77
2022/07/22 13:07:44;;;;;;;9.60;7.03;;;;;;;;;;5072330;28;20032;-77
2022/07/22 13:10:11;;;;;;;10.18;8.00;;;;;;;;;;5072986;28;20025;-76
2022/07/22 13:12:37;;;;;;;10.18;6.60;;;;;;;;;;5072215;28;20048;-77
2022/07/22 13:15:04;;;;;;;17.10;13.88;;;;;;;;;;5074388;28;20036;-77
2022/07/22 13:17:30;;;;;;;10.23;7.25;;;;;;;;;;5074744;28;20021;-76
2022/07/22 13:19:56;;;;;;;9.00;7.65;;;;;;;;;;5075732;28;20021;-76
2022/07/22 13:22:23;;;;;;;8.93;7.18;;;;;;;;;;5076478;28;20025;-77
2022/07/22 13:24:49;;;;;;;12.13;7.10;;;;;;;;;;5075614;28;20032;-77
2022/07/22 13:27:15;;;;;;;12.32;6.03;;;;;;;;;;5075681;28;20020;-76
2022/07/22 13:29:41;;;;;;;7.95;6.63;;;;;;;;;;5076032;28;20072;-77
2022/07/22 13:32:07;;;;;;;7.55;6.85;;;;;;;;;;5074926;28;20036;-77
2022/07/22 13:34:34;;;;;;;11.88;7.25;;;;;;;;;;5075647;28;20051;-76
2022/07/22 13:37:01;;;;;;;11.75;6.90;;;;;;;;;;5075440;28;20095;-77
2022/07/22 13:39:27;;;;;;;10.40;6.28;;;;;;;;;;5075570;28;20013;-77
2022/07/22 13:41:54;;;;;;;9.07;6.13;;;;;;;;;;5075182;28;20023;-78
2022/07/22 13:44:20;;;;;;;6.80;6.10;;;;;;;;;;5074949;28;20075;-77